Time;durP1;ratioP1;P1;durP2;ratioP2;P2;SDS_P1;SDS_P2;PMS_P1;PMS_P2;Temp;Humidity;BMP_temperature;BMP_pressure;BME280_temperature;BME280_humidity;BME280_pressure;Samples;Min_cycle;Max_cycle;Signal;HPM_P1;HPM_P2
2024/01/27 00:00:14;;;;;;;;;;;6.00;99.90;;;;;;5056013;28;19936;-76
2024/01/27 00:02:40;;;;;;;;;;;5.90;99.90;;;;;;5058809;28;19979;-76
2024/01/27 00:05:09;;;;;;;;;;;5.90;99.90;;;;;;5061818;28;19928;-76
2024/01/27 00:07:35;;;;;;;;;;;5.90;99.90;;;;;;5060109;28;20011;-76
2024/01/27 00:10:02;;;;;;;;;;;5.90;99.90;;;;;;5056363;28;19937;-76
2024/01/27 00:12:28;;;;;;;;;;;5.80;99.90;;;;;;5060468;28;19959;-77
2024/01/27 00:14:55;;;;;;;;;;;5.80;99.90;;;;;;5060418;28;19933;-76
2024/01/27 00:17:24;;;;;;;;;;;5.80;99.90;;;;;;5058289;28;20297;-76
2024/01/27 00:19:51;;;;;;;;;;;5.80;99.90;;;;;;5062117;28;19929;-77
2024/01/27 00:22:20;;;;;;;;;;;5.80;99.90;;;;;;5062876;28;19929;-77
2024/01/27 00:24:47;;;;;;;;;;;5.70;99.90;;;;;;5058925;28;19929;-77
2024/01/27 00:27:13;;;;;;;;;;;5.70;99.90;;;;;;5056536;28;19928;-76
2024/01/27 00:29:40;;;;;;;;;;;5.70;99.90;;;;;;5062572;28;19928;-77
2024/01/27 00:32:06;;;;;;;;;;;5.70;99.90;;;;;;5063155;28;19928;-77
2024/01/27 00:34:33;;;;;;;;;;;5.60;99.90;;;;;;5059357;28;19978;-77
2024/01/27 00:36:59;;;;;;;;;;;5.60;99.90;;;;;;5057618;28;19959;-76
2024/01/27 00:39:27;;;;;;;;;;;5.60;99.90;;;;;;5056580;28;19994;-77
2024/01/27 00:41:55;;;;;;;;;;;5.60;99.90;;;;;;5062219;28;19932;-76
2024/01/27 00:44:21;;;;;;;;;;;5.60;99.90;;;;;;5060276;28;19964;-76
2024/01/27 00:46:48;;;;;;;;;;;5.50;99.90;;;;;;5058782;28;19928;-77
2024/01/27 00:49:14;;;;;;;;;;;5.50;99.90;;;;;;5061595;28;20535;-78
2024/01/27 00:51:41;;;;;;;;;;;5.50;99.90;;;;;;5059943;28;19978;-76
2024/01/27 00:54:08;;;;;;;;;;;5.50;99.90;;;;;;5062604;28;20104;-76
2024/01/27 00:56:35;;;;;;;;;;;5.50;99.90;;;;;;5062228;28;19933;-77
2024/01/27 00:59:02;;;;;;;;;;;5.50;99.90;;;;;;5056149;28;19943;-76
2024/01/27 01:01:28;;;;;;;;;;;5.40;99.90;;;;;;5061850;28;19924;-77
2024/01/27 01:03:55;;;;;;;;;;;5.40;99.90;;;;;;5060255;28;19928;-76
2024/01/27 01:06:22;;;;;;;;;;;5.40;99.90;;;;;;5060183;28;19982;-76
2024/01/27 01:08:48;;;;;;;;;;;5.40;99.90;;;;;;5060823;28;20360;-77
2024/01/27 01:11:15;;;;;;;;;;;5.40;99.90;;;;;;5061542;28;19978;-76
2024/01/27 01:13:43;;;;;;;;;;;5.30;99.90;;;;;;5056702;28;20059;-77
2024/01/27 01:16:10;;;;;;;;;;;5.30;99.90;;;;;;5057365;28;19936;-76
2024/01/27 01:18:36;;;;;;;;;;;5.30;99.90;;;;;;5054179;28;19932;-77
2024/01/27 01:21:03;;;;;;;;;;;5.30;99.90;;;;;;5065207;28;19934;-76
2024/01/27 01:23:29;;;;;;;;;;;5.20;99.90;;;;;;5059570;28;19982;-76
2024/01/27 01:25:56;;;;;;;;;;;5.20;99.90;;;;;;5063208;28;19932;-76
2024/01/27 01:28:23;;;;;;;;;;;5.20;99.90;;;;;;5061659;28;19929;-76
2024/01/27 01:30:51;;;;;;;;;;;5.20;99.90;;;;;;5060148;28;19936;-76
2024/01/27 01:33:17;;;;;;;;;;;5.20;99.90;;;;;;5056424;28;19932;-78
2024/01/27 01:35:44;;;;;;;;;;;5.10;99.90;;;;;;5058939;28;19929;-76
2024/01/27 01:38:10;;;;;;;;;;;5.10;99.90;;;;;;5052515;28;20018;-77
2024/01/27 01:40:37;;;;;;;;;;;5.10;99.90;;;;;;5058405;28;19935;-76
2024/01/27 01:43:04;;;;;;;;;;;5.10;99.90;;;;;;5058680;28;19982;-77
2024/01/27 01:45:31;;;;;;;;;;;5.10;99.90;;;;;;5066997;28;19959;-77
2024/01/27 01:47:58;;;;;;;;;;;5.10;99.90;;;;;;5052766;28;19935;-78
2024/01/27 01:50:25;;;;;;;;;;;5.00;99.90;;;;;;5052858;28;20029;-76
2024/01/27 01:52:52;;;;;;;;;;;5.00;99.90;;;;;;5059563;28;20516;-77
2024/01/27 01:55:19;;;;;;;;;;;5.00;99.90;;;;;;5056778;28;19928;-77
2024/01/27 01:57:46;;;;;;;;;;;5.00;99.90;;;;;;5060551;28;19939;-76
2024/01/27 02:00:13;;;;;;;;;;;4.90;99.90;;;;;;5054184;28;19939;-77
2024/01/27 02:02:40;;;;;;;;;;;4.90;99.90;;;;;;5058068;28;19932;-76
2024/01/27 02:05:09;;;;;;;;;;;4.90;99.90;;;;;;5062473;28;19928;-77
2024/01/27 02:07:36;;;;;;;;;;;4.90;99.90;;;;;;5059224;28;19939;-76
2024/01/27 02:10:03;;;;;;;;;;;4.80;99.90;;;;;;5063555;28;19978;-76
2024/01/27 02:12:29;;;;;;;;;;;4.80;99.90;;;;;;5058805;28;19935;-76
2024/01/27 02:14:56;;;;;;;;;;;4.80;99.90;;;;;;5066418;28;19932;-77
2024/01/27 02:17:22;;;;;;;;;;;4.80;99.90;;;;;;5058643;28;19928;-76
2024/01/27 02:19:49;;;;;;;;;;;4.80;99.90;;;;;;5067875;28;19981;-76
2024/01/27 02:22:17;;;;;;;;;;;4.70;99.90;;;;;;5060515;28;19932;-76
2024/01/27 02:24:46;;;;;;;;;;;4.70;99.90;;;;;;5057579;28;19933;-77
2024/01/27 02:27:13;;;;;;;;;;;4.70;99.90;;;;;;5061871;28;20408;-76
2024/01/27 02:29:39;;;;;;;;;;;4.60;99.90;;;;;;5062410;28;19928;-76
2024/01/27 02:32:06;;;;;;;;;;;4.70;99.90;;;;;;5062407;28;20006;-77
2024/01/27 02:34:32;;;;;;;;;;;4.60;99.90;;;;;;5063872;28;20476;-76
2024/01/27 02:36:59;;;;;;;;;;;4.60;99.90;;;;;;5061175;28;19928;-78
2024/01/27 02:39:25;;;;;;;;;;;4.60;99.90;;;;;;5061418;28;19939;-75
2024/01/27 02:41:54;;;;;;;;;;;4.60;99.90;;;;;;5061811;28;19929;-76
2024/01/27 02:44:20;;;;;;;;;;;4.60;99.90;;;;;;5058288;28;20614;-76
2024/01/27 02:46:47;;;;;;;;;;;4.60;99.90;;;;;;5055075;28;19947;-76
2024/01/27 02:49:13;;;;;;;;;;;4.50;99.90;;;;;;5062260;28;19932;-77
2024/01/27 02:51:40;;;;;;;;;;;4.50;99.90;;;;;;5057059;28;20291;-76
2024/01/27 02:54:06;;;;;;;;;;;4.50;99.90;;;;;;5063511;28;19932;-76
2024/01/27 02:56:33;;;;;;;;;;;4.50;99.90;;;;;;5061596;28;19929;-76
2024/01/27 02:59:01;;;;;;;;;;;4.40;99.90;;;;;;5064578;28;19928;-77
2024/01/27 03:01:27;;;;;;;;;;;4.40;99.90;;;;;;5060333;28;20751;-77
2024/01/27 03:03:54;;;;;;;;;;;4.40;99.90;;;;;;5064586;28;20490;-76
2024/01/27 03:06:20;;;;;;;;;;;4.40;99.90;;;;;;5057787;28;19939;-77
2024/01/27 03:08:47;;;;;;;;;;;4.40;99.90;;;;;;5061905;28;19929;-76
2024/01/27 03:11:14;;;;;;;;;;;4.30;99.90;;;;;;5063540;28;20011;-76
2024/01/27 03:13:44;;;;;;;;;;;4.30;99.90;;;;;;5057527;28;20359;-77
2024/01/27 03:16:12;;;;;;;;;;;4.30;99.90;;;;;;5058660;28;19933;-76
2024/01/27 03:18:39;;;;;;;;;;;4.30;99.90;;;;;;5060443;28;20416;-76
2024/01/27 03:21:06;;;;;;;;;;;4.20;99.90;;;;;;5062770;28;19929;-76
2024/01/27 03:23:33;;;;;;;;;;;4.20;99.90;;;;;;5057390;28;19996;-76
2024/01/27 03:25:59;;;;;;;;;;;4.20;99.90;;;;;;5061415;28;19997;-76
2024/01/27 03:28:26;;;;;;;;;;;4.20;99.90;;;;;;5060409;28;19939;-76
2024/01/27 03:30:52;;;;;;;;;;;4.20;99.90;;;;;;5066458;28;19927;-76
2024/01/27 03:33:22;;;;;;;;;;;4.20;99.90;;;;;;5057374;28;20496;-76
2024/01/27 03:35:49;;;;;;;;;;;4.20;99.90;;;;;;5058195;28;20065;-77
2024/01/27 03:38:15;;;;;;;;;;;4.20;99.90;;;;;;5060792;28;20408;-76
2024/01/27 03:40:42;;;;;;;;;;;4.10;99.90;;;;;;5057995;28;19932;-76
2024/01/27 03:43:08;;;;;;;;;;;4.10;99.90;;;;;;5059002;28;19928;-76
2024/01/27 03:45:35;;;;;;;;;;;4.10;99.90;;;;;;5061124;28;19929;-76
2024/01/27 03:48:01;;;;;;;;;;;4.10;99.90;;;;;;5056792;28;19932;-76
2024/01/27 03:50:29;;;;;;;;;;;4.00;99.90;;;;;;5057417;28;20300;-77
2024/01/27 03:52:56;;;;;;;;;;;4.00;99.90;;;;;;5056437;28;20477;-75
2024/01/27 03:55:22;;;;;;;;;;;4.00;99.90;;;;;;5061175;28;19935;-76
2024/01/27 03:57:49;;;;;;;;;;;4.00;99.90;;;;;;5060126;28;19939;-77
2024/01/27 04:00:15;;;;;;;;;;;4.00;99.90;;;;;;5057457;28;20859;-76
2024/01/27 04:02:42;;;;;;;;;;;4.00;99.90;;;;;;5060358;28;19976;-76
2024/01/27 04:05:09;;;;;;;;;;;3.90;99.90;;;;;;5059310;28;19929;-77
2024/01/27 04:07:36;;;;;;;;;;;3.90;99.90;;;;;;5058719;28;19932;-77
2024/01/27 04:10:04;;;;;;;;;;;3.90;99.90;;;;;;5062774;28;19936;-77
2024/01/27 04:12:30;;;;;;;;;;;3.90;99.90;;;;;;5063302;28;20758;-77
2024/01/27 04:14:57;;;;;;;;;;;3.90;99.90;;;;;;5061911;28;19933;-77
2024/01/27 04:17:24;;;;;;;;;;;3.80;99.90;;;;;;5058682;28;20394;-77
2024/01/27 04:19:51;;;;;;;;;;;3.80;99.90;;;;;;5062776;28;19939;-77
2024/01/27 04:22:17;;;;;;;;;;;3.80;99.90;;;;;;5059659;28;19928;-78
2024/01/27 04:24:45;;;;;;;;;;;3.80;99.90;;;;;;5057132;28;20584;-77
2024/01/27 04:27:12;;;;;;;;;;;3.80;99.90;;;;;;5060498;28;19935;-77
2024/01/27 04:29:39;;;;;;;;;;;3.70;99.90;;;;;;5060392;28;19924;-77
2024/01/27 04:32:05;;;;;;;;;;;3.70;99.90;;;;;;5062667;28;19924;-77
2024/01/27 04:34:32;;;;;;;;;;;3.70;99.90;;;;;;5065441;28;19925;-78
2024/01/27 04:36:59;;;;;;;;;;;3.70;99.90;;;;;;5061188;28;19936;-77
2024/01/27 04:39:25;;;;;;;;;;;3.60;99.90;;;;;;5059670;28;19932;-77
2024/01/27 04:41:53;;;;;;;;;;;3.60;99.90;;;;;;5060303;28;19932;-77
2024/01/27 04:44:20;;;;;;;;;;;3.60;99.90;;;;;;5058355;28;20433;-77
2024/01/27 04:46:46;;;;;;;;;;;3.60;99.90;;;;;;5060908;28;20164;-77
2024/01/27 04:49:15;;;;;;;;;;;3.60;99.90;;;;;;5059197;28;19932;-78
2024/01/27 04:51:41;;;;;;;;;;;3.60;99.90;;;;;;5060022;28;19935;-78
2024/01/27 04:54:08;;;;;;;;;;;3.60;99.90;;;;;;5059181;28;20058;-77
2024/01/27 04:56:34;;;;;;;;;;;3.50;99.90;;;;;;5060483;28;19982;-78
2024/01/27 04:59:02;;;;;;;;;;;3.50;99.90;;;;;;5055137;28;19932;-77
2024/01/27 05:01:29;;;;;;;;;;;3.60;99.90;;;;;;5057979;28;19939;-77
2024/01/27 05:03:55;;;;;;;;;;;3.50;99.90;;;;;;5058854;28;19928;-78
2024/01/27 05:06:22;;;;;;;;;;;3.50;99.90;;;;;;5057133;28;19935;-78
2024/01/27 05:08:48;;;;;;;;;;;3.50;99.90;;;;;;5057112;28;19929;-77
2024/01/27 05:11:17;;;;;;;;;;;3.50;99.90;;;;;;5056939;28;20287;-78
2024/01/27 05:13:44;;;;;;;;;;;3.50;99.90;;;;;;5063416;28;19942;-78
2024/01/27 05:16:12;;;;;;;;;;;3.40;99.90;;;;;;5060897;28;19928;-77
2024/01/27 05:18:38;;;;;;;;;;;3.40;99.90;;;;;;5062321;28;19933;-78
2024/01/27 05:21:05;;;;;;;;;;;3.40;99.90;;;;;;5055317;28;19982;-79
2024/01/27 05:23:31;;;;;;;;;;;3.40;99.90;;;;;;5058101;28;19932;-78
2024/01/27 05:25:58;;;;;;;;;;;3.40;99.90;;;;;;5060960;28;19936;-79
2024/01/27 05:28:24;;;;;;;;;;;3.40;99.90;;;;;;5063493;28;19936;-78
2024/01/27 05:30:51;;;;;;;;;;;3.40;99.90;;;;;;5057932;28;19935;-79
2024/01/27 05:33:19;;;;;;;;;;;3.30;99.90;;;;;;5055850;28;20339;-78
2024/01/27 05:35:45;;;;;;;;;;;3.30;99.90;;;;;;5061518;28;19989;-75
2024/01/27 05:38:12;;;;;;;;;;;3.30;99.90;;;;;;5057554;28;19936;-78
2024/01/27 05:40:38;;;;;;;;;;;3.30;99.90;;;;;;5059525;28;19929;-78
2024/01/27 05:43:05;;;;;;;;;;;3.30;99.90;;;;;;5062358;28;19932;-78
2024/01/27 05:45:32;;;;;;;;;;;3.30;99.90;;;;;;5063616;28;19936;-79
2024/01/27 05:47:58;;;;;;;;;;;3.30;99.90;;;;;;5055002;28;20526;-78
2024/01/27 05:50:27;;;;;;;;;;;3.20;99.90;;;;;;5061140;28;19982;-78
2024/01/27 05:52:53;;;;;;;;;;;3.20;99.90;;;;;;5056958;28;19955;-78
2024/01/27 05:55:20;;;;;;;;;;;3.20;99.90;;;;;;5057561;28;20453;-78
2024/01/27 05:57:46;;;;;;;;;;;3.20;99.90;;;;;;5057916;28;20010;-78
2024/01/27 06:00:14;;;;;;;;;;;3.20;99.90;;;;;;5061118;28;19928;-78
2024/01/27 06:02:40;;;;;;;;;;;3.10;99.90;;;;;;5059519;28;20298;-78
2024/01/27 06:05:08;;;;;;;;;;;3.10;99.90;;;;;;5068342;28;20377;-78
2024/01/27 06:07:38;;;;;;;;;;;3.20;99.90;;;;;;5062747;28;19987;-78
2024/01/27 06:10:05;;;;;;;;;;;3.10;99.90;;;;;;5066318;28;19940;-78
2024/01/27 06:12:32;;;;;;;;;;;3.10;99.90;;;;;;5067182;28;19978;-77
2024/01/27 06:14:59;;;;;;;;;;;3.10;99.90;;;;;;5066613;28;20638;-78
2024/01/27 06:17:25;;;;;;;;;;;3.00;99.90;;;;;;5063094;28;19935;-77
2024/01/27 06:19:52;;;;;;;;;;;3.00;99.90;;;;;;5066049;28;19994;-78
2024/01/27 06:22:18;;;;;;;;;;;3.00;99.90;;;;;;5065134;28;20531;-78
2024/01/27 06:24:46;;;;;;;;;;;3.00;99.90;;;;;;5063841;28;19986;-78
2024/01/27 06:27:12;;;;;;;;;;;3.00;99.90;;;;;;5066898;28;19928;-77
2024/01/27 06:29:40;;;;;;;;;;;3.00;99.90;;;;;;5065396;28;19928;-78
2024/01/27 06:32:06;;;;;;;;;;;2.90;99.90;;;;;;5064292;28;19935;-77
2024/01/27 06:34:33;;;;;;;;;;;2.90;99.90;;;;;;5064675;28;20583;-77
2024/01/27 06:36:59;;;;;;;;;;;2.90;99.90;;;;;;5063082;28;19936;-78
2024/01/27 06:39:26;;;;;;;;;;;2.90;99.90;;;;;;5062619;28;19932;-78
2024/01/27 06:41:53;;;;;;;;;;;2.90;99.90;;;;;;5061445;28;19940;-78
2024/01/27 06:44:20;;;;;;;;;;;2.80;99.90;;;;;;5061169;28;20356;-78
2024/01/27 06:46:49;;;;;;;;;;;2.80;99.90;;;;;;5061985;28;19932;-77
2024/01/27 06:49:16;;;;;;;;;;;2.80;99.90;;;;;;5062035;28;20354;-78
2024/01/27 06:51:42;;;;;;;;;;;2.80;99.90;;;;;;5059650;28;19932;-78
2024/01/27 06:54:09;;;;;;;;;;;2.80;99.90;;;;;;5056997;28;19935;-77
2024/01/27 06:56:36;;;;;;;;;;;2.80;99.90;;;;;;5060100;28;19974;-78
2024/01/27 06:59:04;;;;;;;;;;;2.80;99.90;;;;;;5057368;28;19939;-78
2024/01/27 07:01:31;;;;;;;;;;;2.80;99.90;;;;;;5060876;28;19975;-77
2024/01/27 07:03:57;;;;;;;;;;;2.80;99.90;;;;;;5061034;28;19954;-78
2024/01/27 07:06:24;;;;;;;;;;;2.70;99.90;;;;;;5062880;28;19924;-77
2024/01/27 07:08:50;;;;;;;;;;;2.70;99.90;;;;;;5055289;28;19936;-78
2024/01/27 07:11:17;;;;;;;;;;;2.70;99.90;;;;;;5057141;28;19925;-76
2024/01/27 07:13:43;;;;;;;;;;;2.70;99.90;;;;;;5057509;28;19939;-77
2024/01/27 07:16:11;;;;;;;;;;;2.70;99.90;;;;;;5056588;28;19940;-77
2024/01/27 07:18:38;;;;;;;;;;;2.70;99.90;;;;;;5060509;28;19935;-77
2024/01/27 07:21:04;;;;;;;;;;;2.70;99.90;;;;;;5057921;28;19945;-77
2024/01/27 07:23:31;;;;;;;;;;;2.70;99.90;;;;;;5060422;28;19932;-76
2024/01/27 07:26:03;;;;;;;;;;;2.60;99.90;;;;;;5060424;28;20424;-77
2024/01/27 07:28:29;;;;;;;;;;;2.60;99.90;;;;;;5058431;28;20480;-77
2024/01/27 07:30:56;;;;;;;;;;;2.60;99.90;;;;;;5061835;28;20450;-69
2024/01/27 07:33:24;;;;;;;;;;;2.60;99.90;;;;;;5061552;28;19928;-70
2024/01/27 07:35:50;;;;;;;;;;;2.50;99.90;;;;;;5062212;28;19932;-69
2024/01/27 07:38:17;;;;;;;;;;;2.60;99.90;;;;;;5059389;28;20018;-70
2024/01/27 07:40:43;;;;;;;;;;;2.50;99.90;;;;;;5058315;28;19979;-69
2024/01/27 07:43:10;;;;;;;;;;;2.50;99.90;;;;;;5061136;28;20364;-70
2024/01/27 07:45:36;;;;;;;;;;;2.50;99.90;;;;;;5059772;28;19933;-69
2024/01/27 07:48:03;;;;;;;;;;;2.50;99.90;;;;;;5062802;28;19936;-70
2024/01/27 07:50:31;;;;;;;;;;;2.40;99.90;;;;;;5059830;28;19939;-69
2024/01/27 07:52:58;;;;;;;;;;;2.50;99.90;;;;;;5062411;28;19928;-70
2024/01/27 07:55:24;;;;;;;;;;;2.40;99.90;;;;;;5060142;28;19928;-71
2024/01/27 07:57:51;;;;;;;;;;;2.40;99.90;;;;;;5057287;28;19982;-70
2024/01/27 08:00:18;;;;;;;;;;;2.40;99.90;;;;;;5062557;28;20477;-70
2024/01/27 08:02:44;;;;;;;;;;;2.40;99.90;;;;;;5057352;28;20677;-69
2024/01/27 08:05:11;;;;;;;;;;;2.40;99.90;;;;;;5057009;28;19993;-71
2024/01/27 08:07:39;;;;;;;;;;;2.40;99.90;;;;;;5059179;28;19939;-69
2024/01/27 08:10:05;;;;;;;;;;;2.40;99.90;;;;;;5061802;28;20374;-69
2024/01/27 08:12:32;;;;;;;;;;;2.40;99.90;;;;;;5056935;28;19928;-77
2024/01/27 08:14:59;;;;;;;;;;;2.40;99.90;;;;;;5053732;28;20402;-78
2024/01/27 08:17:26;;;;;;;;;;;2.30;99.90;;;;;;5058704;28;19983;-79
2024/01/27 08:19:52;;;;;;;;;;;2.30;99.90;;;;;;5062335;28;20026;-79
2024/01/27 08:22:19;;;;;;;;;;;2.40;99.90;;;;;;5062384;28;20426;-80
2024/01/27 08:24:46;;;;;;;;;;;2.30;99.90;;;;;;5054622;28;19936;-79
2024/01/27 08:27:13;;;;;;;;;;;2.30;99.90;;;;;;5057904;28;19971;-79
2024/01/27 08:29:40;;;;;;;;;;;2.30;99.90;;;;;;5054920;28;19935;-79
2024/01/27 08:32:07;;;;;;;;;;;2.30;99.90;;;;;;5058447;28;19935;-79
2024/01/27 08:34:33;;;;;;;;;;;2.30;99.90;;;;;;5060254;28;19971;-78
2024/01/27 08:37:01;;;;;;;;;;;2.30;99.90;;;;;;5057517;28;19955;-79
2024/01/27 08:39:28;;;;;;;;;;;2.30;99.90;;;;;;5057300;28;19978;-79
2024/01/27 08:41:56;;;;;;;;;;;2.30;99.90;;;;;;5059828;28;19939;-79
2024/01/27 08:44:23;;;;;;;;;;;2.30;99.90;;;;;;5054520;28;19979;-78
2024/01/27 08:46:49;;;;;;;;;;;2.30;99.90;;;;;;5057036;28;19978;-79
2024/01/27 08:49:16;;;;;;;;;;;2.30;99.90;;;;;;5060108;28;19973;-79
2024/01/27 08:51:42;;;;;;;;;;;2.30;99.90;;;;;;5059036;28;20558;-80
2024/01/27 08:54:09;;;;;;;;;;;2.30;99.90;;;;;;5054975;28;19940;-79
2024/01/27 08:56:39;;;;;;;;;;;2.30;99.90;;;;;;5059032;28;19939;-80
2024/01/27 08:59:07;;;;;;;;;;;2.20;99.90;;;;;;5058345;28;19925;-79
2024/01/27 09:01:34;;;;;;;;;;;2.30;99.90;;;;;;5051232;28;19928;-75
2024/01/27 09:04:00;;;;;;;;;;;2.20;99.90;;;;;;5056496;28;20369;-77
2024/01/27 09:06:27;;;;;;;;;;;2.30;99.90;;;;;;5054971;28;19936;-76
2024/01/27 09:08:53;;;;;;;;;;;2.20;99.90;;;;;;5057995;28;19928;-77
2024/01/27 09:11:21;;;;;;;;;;;2.20;99.90;;;;;;5057199;28;19928;-77
2024/01/27 09:13:48;;;;;;;;;;;2.20;99.90;;;;;;5053757;28;20306;-75
2024/01/27 09:16:16;;;;;;;;;;;2.20;99.90;;;;;;5053757;28;20002;-77
2024/01/27 09:18:43;;;;;;;;;;;2.20;99.90;;;;;;5055220;28;19928;-72
2024/01/27 09:21:09;;;;;;;;;;;2.20;99.90;;;;;;5061802;28;20344;-71
2024/01/27 09:23:36;;;;;;;;;;;2.20;99.90;;;;;;5058764;28;19936;-69
2024/01/27 09:26:04;;;;;;;;;;;2.20;99.90;;;;;;5055307;28;20279;-70
2024/01/27 09:28:30;;;;;;;;;;;2.20;99.90;;;;;;5056650;28;19982;-70
2024/01/27 09:30:57;;;;;;;;;;;2.20;99.90;;;;;;5060830;28;20302;-70
2024/01/27 09:33:24;;;;;;;;;;;2.20;99.90;;;;;;5057157;28;19974;-69
2024/01/27 09:35:51;;;;;;;;;;;2.20;99.90;;;;;;5061993;28;19960;-70
2024/01/27 09:38:18;;;;;;;;;;;2.20;99.90;;;;;;5064408;28;19928;-70
2024/01/27 09:40:45;;;;;;;;;;;2.20;99.90;;;;;;5059982;28;19928;-70
2024/01/27 09:43:13;;;;;;;;;;;2.20;99.90;;;;;;5063227;28;19952;-70
2024/01/27 09:45:40;;;;;;;;;;;2.20;99.90;;;;;;5064749;28;20810;-73
2024/01/27 09:48:08;;;;;;;;;;;2.20;99.90;;;;;;5065071;28;19935;-70
2024/01/27 09:50:36;;;;;;;;;;;2.20;99.90;;;;;;5063931;28;19932;-69
2024/01/27 09:53:07;;;;;;;;;;;2.10;99.90;;;;;;5062722;28;20022;-70
2024/01/27 09:55:34;;;;;;;;;;;2.20;99.90;;;;;;5064655;28;19928;-70
2024/01/27 09:58:01;;;;;;;;;;;2.20;99.90;;;;;;5062001;28;19993;-71
2024/01/27 10:00:28;;;;;;;;;;;2.20;99.90;;;;;;5061927;28;19982;-69
2024/01/27 10:02:55;;;;;;;;;;;2.20;99.90;;;;;;5066803;28;20346;-71
2024/01/27 10:05:22;;;;;;;;;;;2.20;99.90;;;;;;5059496;28;21106;-72
2024/01/27 10:07:50;;;;;;;;;;;2.20;99.90;;;;;;5060102;28;20637;-69
2024/01/27 10:10:17;;;;;;;;;;;2.30;99.90;;;;;;5066158;28;20031;-72
2024/01/27 10:12:44;;;;;;;;;;;2.20;99.90;;;;;;5065990;28;20006;-72
2024/01/27 10:15:29;;;;;;;;;;;2.30;99.90;;;;;;5063629;28;19932;-73
2024/01/27 10:18:04;;;;;;;;;;;2.40;99.90;;;;;;5061501;28;20490;-71
2024/01/27 10:20:31;;;;;;;;;;;2.40;99.90;;;;;;5067305;28;19929;-70
2024/01/27 10:22:59;;;;;;;;;;;2.50;99.90;;;;;;5064677;28;19936;-71
2024/01/27 10:25:25;;;;;;;;;;;2.60;99.90;;;;;;5065409;28;19928;-69
2024/01/27 10:27:56;;;;;;;;;;;2.60;99.90;;;;;;5065856;28;20315;-73
2024/01/27 10:30:22;;;;;;;;;;;2.70;99.90;;;;;;5058387;28;20431;-70
2024/01/27 10:32:55;;;;;;;;;;;2.70;99.90;;;;;;5065009;28;19932;-70
2024/01/27 10:35:22;;;;;;;;;;;2.80;99.90;;;;;;5061318;28;20368;-69
2024/01/27 10:37:52;;;;;;;;;;;2.80;99.90;;;;;;5064666;28;19936;-71
2024/01/27 10:40:20;;;;;;;;;;;2.80;99.90;;;;;;5059793;28;19978;-71
2024/01/27 10:42:47;;;;;;;;;;;2.90;99.90;;;;;;5062696;28;20621;-70
2024/01/27 10:45:15;;;;;;;;;;;2.90;99.90;;;;;;5060272;28;19956;-70
2024/01/27 10:47:42;;;;;;;;;;;2.90;99.90;;;;;;5063300;28;20459;-70
2024/01/27 10:50:10;;;;;;;;;;;3.00;99.90;;;;;;5060787;28;20273;-70
2024/01/27 10:52:41;;;;;;;;;;;3.00;99.90;;;;;;5058384;28;19932;-70
2024/01/27 10:55:08;;;;;;;;;;;3.10;99.90;;;;;;5062654;28;19972;-72
2024/01/27 10:57:36;;;;;;;;;;;3.20;99.90;;;;;;5062219;28;19929;-69
2024/01/27 11:00:03;;;;;;;;;;;3.30;99.90;;;;;;5065227;28;20542;-69
2024/01/27 11:02:33;;;;;;;;;;;3.40;99.90;;;;;;5059514;28;19940;-77
2024/01/27 11:04:59;;;;;;;;;;;3.40;99.90;;;;;;5057785;28;20366;-77
2024/01/27 11:07:26;;;;;;;;;;;3.50;99.90;;;;;;5057116;28;20030;-77
2024/01/27 11:09:53;;;;;;;;;;;3.60;99.90;;;;;;5053519;28;19983;-76
2024/01/27 11:12:20;;;;;;;;;;;3.70;99.90;;;;;;5061674;28;19932;-78
2024/01/27 11:14:49;;;;;;;;;;;3.70;99.90;;;;;;5053111;28;20010;-76
2024/01/27 11:17:16;;;;;;;;;;;3.80;99.90;;;;;;5056465;28;20379;-75
2024/01/27 11:19:42;;;;;;;;;;;3.80;99.90;;;;;;5060175;28;20425;-77
2024/01/27 11:22:09;;;;;;;;;;;3.90;99.90;;;;;;5058058;28;20578;-77
2024/01/27 11:24:35;;;;;;;;;;;4.00;99.90;;;;;;5053982;28;19928;-76
2024/01/27 11:27:02;;;;;;;;;;;4.00;99.90;;;;;;5055612;28;20414;-77
2024/01/27 11:29:29;;;;;;;;;;;4.00;99.90;;;;;;5056591;28;20363;-76
2024/01/27 11:31:57;;;;;;;;;;;4.10;99.90;;;;;;5058776;28;19935;-76
2024/01/27 11:34:24;;;;;;;;;;;4.10;99.90;;;;;;5056360;28;20445;-78
2024/01/27 11:36:50;;;;;;;;;;;4.10;99.90;;;;;;5061636;28;19928;-76
2024/01/27 11:39:24;;;;;;;;;;;4.20;99.90;;;;;;5060987;28;19929;-77
2024/01/27 11:41:50;;;;;;;;;;;4.20;99.90;;;;;;5055809;28;19936;-77
2024/01/27 11:44:17;;;;;;;;;;;4.20;99.90;;;;;;5056696;28;20370;-76
2024/01/27 11:46:44;;;;;;;;;;;4.30;99.90;;;;;;5055347;28;19929;-77
2024/01/27 11:49:15;;;;;;;;;;;4.30;99.90;;;;;;5056686;28;19969;-71
2024/01/27 11:51:41;;;;;;;;;;;4.30;99.90;;;;;;5058934;28;19930;-75
2024/01/27 11:54:08;;;;;;;;;;;4.30;99.90;;;;;;5060234;28;19935;-71
2024/01/27 11:56:34;;;;;;;;;;;4.40;99.90;;;;;;5061569;28;19998;-72
2024/01/27 11:59:00;;;;;;;;;;;4.40;99.90;;;;;;5060368;28;19993;-71
2024/01/27 12:01:27;;;;;;;;;;;4.50;99.90;;;;;;5057104;28;19937;-72
2024/01/27 12:03:55;;;;;;;;;;;4.50;99.90;;;;;;5055499;28;21470;-72
2024/01/27 12:06:23;;;;;;;;;;;4.60;99.90;;;;;;5056381;28;19936;-72
2024/01/27 12:08:50;;;;;;;;;;;4.60;99.90;;;;;;5056699;28;19932;-71
2024/01/27 12:11:16;;;;;;;;;;;4.70;99.90;;;;;;5061694;28;19924;-73
2024/01/27 12:13:43;;;;;;;;;;;4.80;99.90;;;;;;5060258;28;19940;-72
2024/01/27 12:16:10;;;;;;;;;;;4.80;99.90;;;;;;5061403;28;19924;-71
2024/01/27 12:18:36;;;;;;;;;;;4.90;99.90;;;;;;5061994;28;19932;-73
2024/01/27 12:21:03;;;;;;;;;;;5.00;99.90;;;;;;5059926;28;19928;-72
2024/01/27 12:23:31;;;;;;;;;;;5.00;99.90;;;;;;5061493;28;20426;-71
2024/01/27 12:25:57;;;;;;;;;;;5.10;99.90;;;;;;5059308;28;19966;-70
2024/01/27 12:28:24;;;;;;;;;;;5.10;99.90;;;;;;5059541;28;19932;-72
2024/01/27 12:30:51;;;;;;;;;;;5.10;99.90;;;;;;5062407;28;20356;-71
2024/01/27 12:33:19;;;;;;;;;;;5.20;99.90;;;;;;5060177;28;20011;-76
2024/01/27 12:35:46;;;;;;;;;;;5.30;99.90;;;;;;5056234;28;19924;-77
2024/01/27 12:38:12;;;;;;;;;;;5.30;99.90;;;;;;5057144;28;20762;-77
2024/01/27 12:40:40;;;;;;;;;;;5.40;99.90;;;;;;5060470;28;19935;-77
2024/01/27 12:43:07;;;;;;;;;;;5.40;99.90;;;;;;5053632;28;19928;-77
2024/01/27 12:45:34;;;;;;;;;;;5.50;99.90;;;;;;5056448;28;20378;-77
2024/01/27 12:48:02;;;;;;;;;;;5.50;99.90;;;;;;5056142;28;19924;-77
2024/01/27 12:50:28;;;;;;;;;;;5.60;99.90;;;;;;5060284;28;19928;-77
2024/01/27 12:52:55;;;;;;;;;;;5.60;99.90;;;;;;5057510;28;19955;-76
2024/01/27 12:55:21;;;;;;;;;;;5.70;99.90;;;;;;5055718;28;20532;-76
2024/01/27 12:57:49;;;;;;;;;;;5.70;99.90;;;;;;5056900;28;20361;-77
2024/01/27 13:00:17;;;;;;;;;;;5.80;99.90;;;;;;5054963;28;19924;-78
2024/01/27 13:02:43;;;;;;;;;;;5.80;99.90;;;;;;5054484;28;20522;-77
2024/01/27 13:05:10;;;;;;;;;;;5.90;99.90;;;;;;5058968;28;19929;-77
2024/01/27 13:07:37;;;;;;;;;;;5.90;99.90;;;;;;5053288;28;19929;-77
2024/01/27 13:10:03;;;;;;;;;;;5.90;99.90;;;;;;5053513;28;19940;-76
2024/01/27 13:12:31;;;;;;;;;;;6.00;99.90;;;;;;5056587;28;19936;-76
2024/01/27 13:14:59;;;;;;;;;;;6.00;99.90;;;;;;5053428;28;19936;-76
2024/01/27 13:17:26;;;;;;;;;;;6.00;99.90;;;;;;5055568;28;20003;-76
2024/01/27 13:19:52;;;;;;;;;;;6.10;99.90;;;;;;5060104;28;19950;-76
2024/01/27 13:22:20;;;;;;;;;;;6.10;99.90;;;;;;5055675;28;19936;-77
2024/01/27 13:24:47;;;;;;;;;;;6.10;99.90;;;;;;5057132;28;20715;-76
2024/01/27 13:27:14;;;;;;;;;;;6.10;99.90;;;;;;5060230;28;20003;-77
2024/01/27 13:29:40;;;;;;;;;;;6.20;99.90;;;;;;5050321;28;20305;-77
2024/01/27 13:32:08;;;;;;;;;;;6.30;99.90;;;;;;5049599;28;20010;-76
2024/01/27 13:34:35;;;;;;;;;;;6.30;99.90;;;;;;5052845;28;19933;-77
2024/01/27 13:37:03;;;;;;;;;;;6.30;99.90;;;;;;5054253;28;19932;-78
2024/01/27 13:39:30;;;;;;;;;;;6.30;99.90;;;;;;5050866;28;19932;-75
2024/01/27 13:41:57;;;;;;;;;;;6.40;99.90;;;;;;5059729;28;19940;-81
2024/01/27 13:44:23;;;;;;;;;;;6.40;99.90;;;;;;5062250;28;19936;-79
2024/01/27 13:46:50;;;;;;;;;;;6.40;99.90;;;;;;5060501;28;20345;-81
2024/01/27 13:49:17;;;;;;;;;;;6.50;99.90;;;;;;5058278;28;19933;-77
2024/01/27 13:51:44;;;;;;;;;;;6.50;99.90;;;;;;5054098;28;19936;-77
2024/01/27 13:54:10;;;;;;;;;;;6.50;99.90;;;;;;5051299;28;19961;-77
2024/01/27 13:56:38;;;;;;;;;;;6.60;99.90;;;;;;5053191;28;19958;-77
2024/01/27 13:59:06;;;;;;;;;;;6.60;99.90;;;;;;5052171;28;19933;-78
2024/01/27 14:01:33;;;;;;;;;;;6.70;99.90;;;;;;5050362;28;20062;-77
2024/01/27 14:03:59;;;;;;;;;;;6.60;99.90;;;;;;5053859;28;19932;-77
2024/01/27 14:06:27;;;;;;;;;;;6.70;99.90;;;;;;5056996;28;19929;-76
2024/01/27 14:08:54;;;;;;;;;;;6.70;99.90;;;;;;5054858;28;19932;-77
2024/01/27 14:11:21;;;;;;;;;;;6.80;99.90;;;;;;5058280;28;19974;-76
2024/01/27 14:13:47;;;;;;;;;;;6.80;99.90;;;;;;5053049;28;20353;-76
2024/01/27 14:16:14;;;;;;;;;;;6.80;99.90;;;;;;5056644;28;19978;-77
2024/01/27 14:18:42;;;;;;;;;;;6.80;99.90;;;;;;5055969;28;19928;-79
2024/01/27 14:21:08;;;;;;;;;;;6.80;99.90;;;;;;5057700;28;19931;-78
2024/01/27 14:23:37;;;;;;;;;;;6.90;99.90;;;;;;5060106;28;19936;-77
2024/01/27 14:26:04;;;;;;;;;;;6.90;99.90;;;;;;5060418;28;19928;-76
2024/01/27 14:28:31;;;;;;;;;;;6.90;99.90;;;;;;5061174;28;19933;-77